sensor_id;sensor_type;location;lat;lon;timestamp;P1;durP1;ratioP1;P2;durP2;ratioP2
16922;SDS011;8578;50.938;13.556;2024-02-23T00:01:12;1.10;;;0.30;;
16922;SDS011;8578;50.938;13.556;2024-02-23T00:03:40;0.30;;;0.30;;
16922;SDS011;8578;50.938;13.556;2024-02-23T00:06:08;0.33;;;0.30;;
16922;SDS011;8578;50.938;13.556;2024-02-23T00:08:38;0.20;;;0.20;;
16922;SDS011;8578;50.938;13.556;2024-02-23T00:11:07;0.20;;;0.20;;
16922;SDS011;8578;50.938;13.556;2024-02-23T00:13:35;0.10;;;0.10;;
16922;SDS011;8578;50.938;13.556;2024-02-23T00:16:03;0.30;;;0.20;;
16922;SDS011;8578;50.938;13.556;2024-02-23T00:18:30;0.27;;;0.20;;
16922;SDS011;8578;50.938;13.556;2024-02-23T00:20:58;0.30;;;0.20;;
16922;SDS011;8578;50.938;13.556;2024-02-23T00:23:25;0.30;;;0.30;;
16922;SDS011;8578;50.938;13.556;2024-02-23T00:25:56;0.33;;;0.23;;
16922;SDS011;8578;50.938;13.556;2024-02-23T00:28:24;0.20;;;0.20;;
16922;SDS011;8578;50.938;13.556;2024-02-23T00:30:54;0.93;;;0.20;;
16922;SDS011;8578;50.938;13.556;2024-02-23T00:33:22;1.13;;;0.27;;
16922;SDS011;8578;50.938;13.556;2024-02-23T00:35:49;0.63;;;0.40;;
16922;SDS011;8578;50.938;13.556;2024-02-23T00:38:18;1.50;;;0.30;;
16922;SDS011;8578;50.938;13.556;2024-02-23T00:40:46;0.23;;;0.20;;
16922;SDS011;8578;50.938;13.556;2024-02-23T00:43:14;0.37;;;0.30;;
16922;SDS011;8578;50.938;13.556;2024-02-23T00:45:42;0.80;;;0.40;;
16922;SDS011;8578;50.938;13.556;2024-02-23T00:48:09;0.20;;;0.20;;
16922;SDS011;8578;50.938;13.556;2024-02-23T00:50:39;0.33;;;0.20;;
16922;SDS011;8578;50.938;13.556;2024-02-23T00:53:06;0.30;;;0.30;;
16922;SDS011;8578;50.938;13.556;2024-02-23T00:55:34;1.90;;;0.30;;
16922;SDS011;8578;50.938;13.556;2024-02-23T00:58:01;0.23;;;0.20;;
16922;SDS011;8578;50.938;13.556;2024-02-23T01:00:32;0.30;;;0.30;;
16922;SDS011;8578;50.938;13.556;2024-02-23T01:03:00;0.30;;;0.20;;
16922;SDS011;8578;50.938;13.556;2024-02-23T01:05:28;0.30;;;0.20;;
16922;SDS011;8578;50.938;13.556;2024-02-23T01:07:55;0.30;;;0.30;;
16922;SDS011;8578;50.938;13.556;2024-02-23T01:10:24;0.10;;;0.10;;
16922;SDS011;8578;50.938;13.556;2024-02-23T01:12:53;0.63;;;0.30;;
16922;SDS011;8578;50.938;13.556;2024-02-23T01:15:21;0.30;;;0.30;;
16922;SDS011;8578;50.938;13.556;2024-02-23T01:17:52;0.40;;;0.30;;
16922;SDS011;8578;50.938;13.556;2024-02-23T01:20:20;0.20;;;0.20;;
16922;SDS011;8578;50.938;13.556;2024-02-23T01:22:47;0.70;;;0.30;;
16922;SDS011;8578;50.938;13.556;2024-02-23T01:25:15;0.33;;;0.30;;
16922;SDS011;8578;50.938;13.556;2024-02-23T01:27:42;0.33;;;0.20;;
16922;SDS011;8578;50.938;13.556;2024-02-23T01:30:11;2.03;;;0.30;;
16922;SDS011;8578;50.938;13.556;2024-02-23T01:32:39;1.80;;;0.30;;
16922;SDS011;8578;50.938;13.556;2024-02-23T01:35:08;0.30;;;0.30;;
16922;SDS011;8578;50.938;13.556;2024-02-23T01:37:36;0.27;;;0.20;;
16922;SDS011;8578;50.938;13.556;2024-02-23T01:40:04;0.57;;;0.20;;
16922;SDS011;8578;50.938;13.556;2024-02-23T01:42:33;0.30;;;0.30;;
16922;SDS011;8578;50.938;13.556;2024-02-23T01:45:00;0.60;;;0.23;;
16922;SDS011;8578;50.938;13.556;2024-02-23T01:47:29;0.40;;;0.30;;
16922;SDS011;8578;50.938;13.556;2024-02-23T01:49:57;0.60;;;0.40;;
16922;SDS011;8578;50.938;13.556;2024-02-23T01:52:26;0.90;;;0.40;;
16922;SDS011;8578;50.938;13.556;2024-02-23T01:54:54;0.57;;;0.20;;
16922;SDS011;8578;50.938;13.556;2024-02-23T01:57:21;0.30;;;0.30;;
16922;SDS011;8578;50.938;13.556;2024-02-23T02:00:11;0.50;;;0.20;;
16922;SDS011;8578;50.938;13.556;2024-02-23T02:02:46;0.20;;;0.20;;
16922;SDS011;8578;50.938;13.556;2024-02-23T02:05:16;0.40;;;0.20;;
16922;SDS011;8578;50.938;13.556;2024-02-23T02:07:45;0.30;;;0.20;;
16922;SDS011;8578;50.938;13.556;2024-02-23T02:10:13;0.43;;;0.30;;
16922;SDS011;8578;50.938;13.556;2024-02-23T02:12:41;0.63;;;0.20;;
16922;SDS011;8578;50.938;13.556;2024-02-23T02:15:09;0.73;;;0.30;;
16922;SDS011;8578;50.938;13.556;2024-02-23T02:17:36;0.40;;;0.20;;
16922;SDS011;8578;50.938;13.556;2024-02-23T02:20:05;0.20;;;0.20;;
16922;SDS011;8578;50.938;13.556;2024-02-23T02:22:35;0.20;;;0.20;;
16922;SDS011;8578;50.938;13.556;2024-02-23T02:25:05;0.33;;;0.30;;
16922;SDS011;8578;50.938;13.556;2024-02-23T02:27:33;2.50;;;0.30;;
16922;SDS011;8578;50.938;13.556;2024-02-23T02:30:00;0.20;;;0.20;;
16922;SDS011;8578;50.938;13.556;2024-02-23T02:32:28;0.60;;;0.20;;
16922;SDS011;8578;50.938;13.556;2024-02-23T02:35:01;0.77;;;0.20;;
16922;SDS011;8578;50.938;13.556;2024-02-23T02:37:29;1.13;;;0.30;;
16922;SDS011;8578;50.938;13.556;2024-02-23T02:39:56;0.30;;;0.13;;
16922;SDS011;8578;50.938;13.556;2024-02-23T02:42:26;0.20;;;0.20;;
16922;SDS011;8578;50.938;13.556;2024-02-23T02:44:55;0.13;;;0.13;;
16922;SDS011;8578;50.938;13.556;2024-02-23T02:47:22;0.33;;;0.20;;
16922;SDS011;8578;50.938;13.556;2024-02-23T02:49:51;0.50;;;0.30;;
16922;SDS011;8578;50.938;13.556;2024-02-23T02:52:19;0.43;;;0.30;;
16922;SDS011;8578;50.938;13.556;2024-02-23T02:54:49;0.20;;;0.20;;
16922;SDS011;8578;50.938;13.556;2024-02-23T02:57:16;1.60;;;0.40;;
16922;SDS011;8578;50.938;13.556;2024-02-23T02:59:45;0.73;;;0.20;;
16922;SDS011;8578;50.938;13.556;2024-02-23T03:02:13;0.63;;;0.20;;
16922;SDS011;8578;50.938;13.556;2024-02-23T03:04:46;0.20;;;0.20;;
16922;SDS011;8578;50.938;13.556;2024-02-23T03:07:15;0.50;;;0.30;;
16922;SDS011;8578;50.938;13.556;2024-02-23T03:09:43;0.10;;;0.10;;
16922;SDS011;8578;50.938;13.556;2024-02-23T03:12:10;0.17;;;0.17;;
16922;SDS011;8578;50.938;13.556;2024-02-23T03:14:39;0.53;;;0.10;;
16922;SDS011;8578;50.938;13.556;2024-02-23T03:17:09;1.50;;;0.20;;
16922;SDS011;8578;50.938;13.556;2024-02-23T03:19:38;0.33;;;0.20;;
16922;SDS011;8578;50.938;13.556;2024-02-23T03:22:05;0.30;;;0.10;;
16922;SDS011;8578;50.938;13.556;2024-02-23T03:24:33;0.10;;;0.10;;
16922;SDS011;8578;50.938;13.556;2024-02-23T03:27:01;0.30;;;0.20;;
16922;SDS011;8578;50.938;13.556;2024-02-23T03:29:28;0.60;;;0.10;;
16922;SDS011;8578;50.938;13.556;2024-02-23T03:31:57;0.30;;;0.20;;
16922;SDS011;8578;50.938;13.556;2024-02-23T03:34:26;0.77;;;0.20;;
16922;SDS011;8578;50.938;13.556;2024-02-23T03:36:54;1.87;;;0.20;;
16922;SDS011;8578;50.938;13.556;2024-02-23T03:39:23;0.50;;;0.30;;
16922;SDS011;8578;50.938;13.556;2024-02-23T03:41:50;0.77;;;0.20;;
16922;SDS011;8578;50.938;13.556;2024-02-23T03:44:17;0.20;;;0.20;;
16922;SDS011;8578;50.938;13.556;2024-02-23T03:46:45;0.30;;;0.20;;
16922;SDS011;8578;50.938;13.556;2024-02-23T03:49:12;1.27;;;0.20;;
16922;SDS011;8578;50.938;13.556;2024-02-23T03:51:41;0.57;;;0.30;;
16922;SDS011;8578;50.938;13.556;2024-02-23T03:54:09;0.60;;;0.30;;
16922;SDS011;8578;50.938;13.556;2024-02-23T03:56:39;0.43;;;0.20;;
16922;SDS011;8578;50.938;13.556;2024-02-23T03:59:07;3.70;;;0.40;;
16922;SDS011;8578;50.938;13.556;2024-02-23T04:01:36;0.20;;;0.20;;
16922;SDS011;8578;50.938;13.556;2024-02-23T04:04:04;0.20;;;0.10;;
16922;SDS011;8578;50.938;13.556;2024-02-23T04:06:32;0.50;;;0.30;;
16922;SDS011;8578;50.938;13.556;2024-02-23T04:09:02;0.77;;;0.20;;
16922;SDS011;8578;50.938;13.556;2024-02-23T04:11:31;0.30;;;0.20;;
16922;SDS011;8578;50.938;13.556;2024-02-23T04:13:59;0.40;;;0.20;;
16922;SDS011;8578;50.938;13.556;2024-02-23T04:16:28;0.13;;;0.13;;
16922;SDS011;8578;50.938;13.556;2024-02-23T04:18:56;1.30;;;0.30;;
16922;SDS011;8578;50.938;13.556;2024-02-23T04:21:23;0.20;;;0.10;;
16922;SDS011;8578;50.938;13.556;2024-02-23T04:23:51;0.17;;;0.17;;
16922;SDS011;8578;50.938;13.556;2024-02-23T04:26:20;0.77;;;0.20;;
16922;SDS011;8578;50.938;13.556;2024-02-23T04:28:47;0.30;;;0.27;;
16922;SDS011;8578;50.938;13.556;2024-02-23T04:31:16;0.87;;;0.30;;
16922;SDS011;8578;50.938;13.556;2024-02-23T04:33:44;1.77;;;0.20;;
16922;SDS011;8578;50.938;13.556;2024-02-23T04:36:13;0.67;;;0.30;;
16922;SDS011;8578;50.938;13.556;2024-02-23T04:38:41;0.77;;;0.30;;
16922;SDS011;8578;50.938;13.556;2024-02-23T04:41:08;0.77;;;0.33;;
16922;SDS011;8578;50.938;13.556;2024-02-23T04:43:37;0.50;;;0.30;;
16922;SDS011;8578;50.938;13.556;2024-02-23T04:46:05;0.73;;;0.30;;
16922;SDS011;8578;50.938;13.556;2024-02-23T04:48:32;0.13;;;0.13;;
16922;SDS011;8578;50.938;13.556;2024-02-23T04:51:00;0.20;;;0.20;;
16922;SDS011;8578;50.938;13.556;2024-02-23T04:53:27;1.90;;;0.20;;
16922;SDS011;8578;50.938;13.556;2024-02-23T04:55:55;0.30;;;0.10;;
16922;SDS011;8578;50.938;13.556;2024-02-23T04:58:22;0.20;;;0.20;;
16922;SDS011;8578;50.938;13.556;2024-02-23T05:00:51;0.30;;;0.10;;
16922;SDS011;8578;50.938;13.556;2024-02-23T05:03:18;0.70;;;0.30;;
16922;SDS011;8578;50.938;13.556;2024-02-23T05:05:46;1.07;;;0.30;;
16922;SDS011;8578;50.938;13.556;2024-02-23T05:08:14;0.67;;;0.10;;
16922;SDS011;8578;50.938;13.556;2024-02-23T05:10:42;0.30;;;0.20;;
16922;SDS011;8578;50.938;13.556;2024-02-23T05:13:10;1.80;;;0.30;;
16922;SDS011;8578;50.938;13.556;2024-02-23T05:15:38;1.17;;;0.20;;
16922;SDS011;8578;50.938;13.556;2024-02-23T05:18:07;0.77;;;0.20;;
16922;SDS011;8578;50.938;13.556;2024-02-23T05:20:35;0.87;;;0.30;;
16922;SDS011;8578;50.938;13.556;2024-02-23T05:23:04;0.43;;;0.30;;
16922;SDS011;8578;50.938;13.556;2024-02-23T05:25:32;0.60;;;0.20;;
16922;SDS011;8578;50.938;13.556;2024-02-23T05:27:59;0.50;;;0.20;;
16922;SDS011;8578;50.938;13.556;2024-02-23T05:30:26;0.93;;;0.30;;
16922;SDS011;8578;50.938;13.556;2024-02-23T05:32:58;0.67;;;0.20;;
16922;SDS011;8578;50.938;13.556;2024-02-23T05:35:30;0.40;;;0.10;;
16922;SDS011;8578;50.938;13.556;2024-02-23T05:37:59;0.30;;;0.10;;
16922;SDS011;8578;50.938;13.556;2024-02-23T05:40:27;0.50;;;0.20;;
16922;SDS011;8578;50.938;13.556;2024-02-23T05:42:55;0.53;;;0.20;;
16922;SDS011;8578;50.938;13.556;2024-02-23T05:45:22;0.70;;;0.20;;
16922;SDS011;8578;50.938;13.556;2024-02-23T05:47:49;1.43;;;0.13;;
16922;SDS011;8578;50.938;13.556;2024-02-23T05:50:17;0.70;;;0.20;;
16922;SDS011;8578;50.938;13.556;2024-02-23T05:52:46;1.60;;;0.20;;
16922;SDS011;8578;50.938;13.556;2024-02-23T05:55:14;0.57;;;0.27;;
16922;SDS011;8578;50.938;13.556;2024-02-23T05:57:42;0.53;;;0.17;;
16922;SDS011;8578;50.938;13.556;2024-02-23T06:00:11;0.43;;;0.13;;
16922;SDS011;8578;50.938;13.556;2024-02-23T06:02:42;0.57;;;0.20;;
16922;SDS011;8578;50.938;13.556;2024-02-23T06:05:11;0.60;;;0.10;;
16922;SDS011;8578;50.938;13.556;2024-02-23T06:07:41;0.53;;;0.20;;
16922;SDS011;8578;50.938;13.556;2024-02-23T06:10:10;1.23;;;0.20;;
16922;SDS011;8578;50.938;13.556;2024-02-23T06:12:37;0.70;;;0.10;;
16922;SDS011;8578;50.938;13.556;2024-02-23T06:15:06;0.20;;;0.10;;
16922;SDS011;8578;50.938;13.556;2024-02-23T06:17:34;1.03;;;0.33;;
16922;SDS011;8578;50.938;13.556;2024-02-23T06:20:02;1.57;;;0.40;;
16922;SDS011;8578;50.938;13.556;2024-02-23T06:22:33;0.33;;;0.27;;
16922;SDS011;8578;50.938;13.556;2024-02-23T06:25:00;0.10;;;0.10;;
16922;SDS011;8578;50.938;13.556;2024-02-23T06:27:29;0.70;;;0.20;;
16922;SDS011;8578;50.938;13.556;2024-02-23T06:29:56;0.40;;;0.20;;
16922;SDS011;8578;50.938;13.556;2024-02-23T06:32:24;0.60;;;0.20;;
16922;SDS011;8578;50.938;13.556;2024-02-23T06:34:53;0.23;;;0.20;;
16922;SDS011;8578;50.938;13.556;2024-02-23T06:37:27;0.83;;;0.30;;
16922;SDS011;8578;50.938;13.556;2024-02-23T06:39:55;0.73;;;0.30;;
16922;SDS011;8578;50.938;13.556;2024-02-23T06:42:22;0.20;;;0.20;;
16922;SDS011;8578;50.938;13.556;2024-02-23T06:44:53;2.10;;;0.20;;
16922;SDS011;8578;50.938;13.556;2024-02-23T06:47:21;0.93;;;0.20;;
16922;SDS011;8578;50.938;13.556;2024-02-23T06:49:49;0.50;;;0.23;;
16922;SDS011;8578;50.938;13.556;2024-02-23T06:52:17;0.83;;;0.43;;
16922;SDS011;8578;50.938;13.556;2024-02-23T06:54:46;0.90;;;0.30;;
16922;SDS011;8578;50.938;13.556;2024-02-23T06:57:14;2.33;;;0.37;;
16922;SDS011;8578;50.938;13.556;2024-02-23T06:59:41;0.47;;;0.20;;
16922;SDS011;8578;50.938;13.556;2024-02-23T07:02:11;1.57;;;0.30;;
16922;SDS011;8578;50.938;13.556;2024-02-23T07:04:38;0.53;;;0.13;;
16922;SDS011;8578;50.938;13.556;2024-02-23T07:07:05;0.53;;;0.20;;
16922;SDS011;8578;50.938;13.556;2024-02-23T07:09:34;0.40;;;0.20;;
16922;SDS011;8578;50.938;13.556;2024-02-23T07:12:02;0.30;;;0.17;;
16922;SDS011;8578;50.938;13.556;2024-02-23T07:14:30;2.20;;;0.40;;
16922;SDS011;8578;50.938;13.556;2024-02-23T07:16:57;1.10;;;0.20;;
16922;SDS011;8578;50.938;13.556;2024-02-23T07:19:26;0.60;;;0.20;;
16922;SDS011;8578;50.938;13.556;2024-02-23T07:21:54;0.27;;;0.20;;
16922;SDS011;8578;50.938;13.556;2024-02-23T07:24:22;0.43;;;0.40;;
16922;SDS011;8578;50.938;13.556;2024-02-23T07:26:49;1.13;;;0.30;;
16922;SDS011;8578;50.938;13.556;2024-02-23T07:29:17;0.43;;;0.20;;
16922;SDS011;8578;50.938;13.556;2024-02-23T07:31:49;0.73;;;0.30;;
16922;SDS011;8578;50.938;13.556;2024-02-23T07:34:16;0.40;;;0.10;;
16922;SDS011;8578;50.938;13.556;2024-02-23T07:36:45;0.67;;;0.20;;
16922;SDS011;8578;50.938;13.556;2024-02-23T07:39:13;1.10;;;0.37;;
16922;SDS011;8578;50.938;13.556;2024-02-23T07:41:40;1.87;;;0.60;;
16922;SDS011;8578;50.938;13.556;2024-02-23T07:44:07;0.47;;;0.20;;
16922;SDS011;8578;50.938;13.556;2024-02-23T07:46:35;1.30;;;0.30;;
16922;SDS011;8578;50.938;13.556;2024-02-23T07:49:03;0.83;;;0.27;;
16922;SDS011;8578;50.938;13.556;2024-02-23T07:51:31;0.80;;;0.30;;
16922;SDS011;8578;50.938;13.556;2024-02-23T07:54:00;0.57;;;0.20;;
16922;SDS011;8578;50.938;13.556;2024-02-23T07:56:29;0.43;;;0.20;;
16922;SDS011;8578;50.938;13.556;2024-02-23T07:58:56;0.30;;;0.23;;
16922;SDS011;8578;50.938;13.556;2024-02-23T08:01:24;0.33;;;0.20;;
16922;SDS011;8578;50.938;13.556;2024-02-23T08:03:52;0.47;;;0.30;;
16922;SDS011;8578;50.938;13.556;2024-02-23T08:06:20;0.20;;;0.10;;
16922;SDS011;8578;50.938;13.556;2024-02-23T08:08:47;1.40;;;0.50;;
16922;SDS011;8578;50.938;13.556;2024-02-23T08:11:16;1.40;;;0.40;;
16922;SDS011;8578;50.938;13.556;2024-02-23T08:13:44;1.07;;;0.20;;
16922;SDS011;8578;50.938;13.556;2024-02-23T08:16:12;1.13;;;0.30;;
16922;SDS011;8578;50.938;13.556;2024-02-23T08:18:40;1.53;;;0.30;;
16922;SDS011;8578;50.938;13.556;2024-02-23T08:21:09;0.37;;;0.20;;
16922;SDS011;8578;50.938;13.556;2024-02-23T08:23:38;1.10;;;0.30;;
16922;SDS011;8578;50.938;13.556;2024-02-23T08:26:06;1.53;;;0.40;;
16922;SDS011;8578;50.938;13.556;2024-02-23T08:28:35;1.80;;;0.33;;
16922;SDS011;8578;50.938;13.556;2024-02-23T08:31:03;0.70;;;0.30;;
16922;SDS011;8578;50.938;13.556;2024-02-23T08:33:31;1.13;;;0.30;;
16922;SDS011;8578;50.938;13.556;2024-02-23T08:35:59;1.23;;;0.30;;
16922;SDS011;8578;50.938;13.556;2024-02-23T08:38:27;0.77;;;0.30;;
16922;SDS011;8578;50.938;13.556;2024-02-23T08:40:54;1.07;;;0.43;;
16922;SDS011;8578;50.938;13.556;2024-02-23T08:43:23;0.47;;;0.30;;
16922;SDS011;8578;50.938;13.556;2024-02-23T08:45:52;0.70;;;0.30;;
16922;SDS011;8578;50.938;13.556;2024-02-23T08:48:20;1.07;;;0.30;;
16922;SDS011;8578;50.938;13.556;2024-02-23T08:50:49;0.77;;;0.13;;
16922;SDS011;8578;50.938;13.556;2024-02-23T08:53:16;1.60;;;0.43;;
16922;SDS011;8578;50.938;13.556;2024-02-23T08:55:44;1.63;;;0.43;;
16922;SDS011;8578;50.938;13.556;2024-02-23T08:58:11;0.80;;;0.30;;
16922;SDS011;8578;50.938;13.556;2024-02-23T09:00:39;0.43;;;0.20;;
16922;SDS011;8578;50.938;13.556;2024-02-23T09:03:09;0.47;;;0.20;;
16922;SDS011;8578;50.938;13.556;2024-02-23T09:05:37;0.93;;;0.20;;
16922;SDS011;8578;50.938;13.556;2024-02-23T09:08:05;0.63;;;0.37;;
16922;SDS011;8578;50.938;13.556;2024-02-23T09:10:32;1.03;;;0.30;;
16922;SDS011;8578;50.938;13.556;2024-02-23T09:13:00;0.30;;;0.20;;
16922;SDS011;8578;50.938;13.556;2024-02-23T09:15:28;0.57;;;0.23;;
16922;SDS011;8578;50.938;13.556;2024-02-23T09:17:55;4.90;;;0.43;;
16922;SDS011;8578;50.938;13.556;2024-02-23T09:20:24;0.73;;;0.20;;
16922;SDS011;8578;50.938;13.556;2024-02-23T09:22:59;1.23;;;0.80;;
16922;SDS011;8578;50.938;13.556;2024-02-23T09:25:27;1.97;;;0.60;;
16922;SDS011;8578;50.938;13.556;2024-02-23T09:27:56;1.50;;;0.23;;
16922;SDS011;8578;50.938;13.556;2024-02-23T09:30:23;0.90;;;0.50;;
16922;SDS011;8578;50.938;13.556;2024-02-23T09:32:52;1.27;;;0.30;;
16922;SDS011;8578;50.938;13.556;2024-02-23T09:35:20;1.10;;;0.40;;
16922;SDS011;8578;50.938;13.556;2024-02-23T09:37:49;2.47;;;0.50;;
16922;SDS011;8578;50.938;13.556;2024-02-23T09:40:18;1.17;;;0.20;;
16922;SDS011;8578;50.938;13.556;2024-02-23T09:42:47;0.70;;;0.20;;
16922;SDS011;8578;50.938;13.556;2024-02-23T09:45:18;0.50;;;0.20;;
16922;SDS011;8578;50.938;13.556;2024-02-23T09:47:46;0.80;;;0.30;;
16922;SDS011;8578;50.938;13.556;2024-02-23T09:50:14;0.50;;;0.10;;
16922;SDS011;8578;50.938;13.556;2024-02-23T09:52:43;1.23;;;0.20;;
16922;SDS011;8578;50.938;13.556;2024-02-23T09:55:12;0.93;;;0.30;;
16922;SDS011;8578;50.938;13.556;2024-02-23T09:57:39;0.40;;;0.20;;
16922;SDS011;8578;50.938;13.556;2024-02-23T10:00:07;0.77;;;0.27;;
16922;SDS011;8578;50.938;13.556;2024-02-23T10:02:39;0.40;;;0.20;;
16922;SDS011;8578;50.938;13.556;2024-02-23T10:05:07;0.53;;;0.20;;
16922;SDS011;8578;50.938;13.556;2024-02-23T10:07:37;2.17;;;0.27;;
16922;SDS011;8578;50.938;13.556;2024-02-23T10:10:06;1.30;;;0.23;;
16922;SDS011;8578;50.938;13.556;2024-02-23T10:12:35;0.10;;;0.10;;
16922;SDS011;8578;50.938;13.556;2024-02-23T10:15:03;1.40;;;0.30;;
16922;SDS011;8578;50.938;13.556;2024-02-23T10:17:31;0.80;;;0.20;;
16922;SDS011;8578;50.938;13.556;2024-02-23T10:20:02;1.50;;;0.20;;
16922;SDS011;8578;50.938;13.556;2024-02-23T10:22:31;4.50;;;0.30;;
16922;SDS011;8578;50.938;13.556;2024-02-23T10:24:59;1.53;;;0.33;;
16922;SDS011;8578;50.938;13.556;2024-02-23T10:27:26;0.60;;;0.20;;
16922;SDS011;8578;50.938;13.556;2024-02-23T10:29:55;0.93;;;0.20;;
16922;SDS011;8578;50.938;13.556;2024-02-23T10:32:23;1.37;;;0.20;;
16922;SDS011;8578;50.938;13.556;2024-02-23T10:34:52;0.60;;;0.20;;
16922;SDS011;8578;50.938;13.556;2024-02-23T10:37:20;0.60;;;0.30;;
16922;SDS011;8578;50.938;13.556;2024-02-23T10:39:48;0.90;;;0.40;;
16922;SDS011;8578;50.938;13.556;2024-02-23T10:42:18;0.60;;;0.40;;
16922;SDS011;8578;50.938;13.556;2024-02-23T10:44:50;0.67;;;0.33;;
16922;SDS011;8578;50.938;13.556;2024-02-23T10:47:19;0.83;;;0.47;;
16922;SDS011;8578;50.938;13.556;2024-02-23T10:49:47;0.80;;;0.20;;
16922;SDS011;8578;50.938;13.556;2024-02-23T10:52:14;1.00;;;0.30;;
16922;SDS011;8578;50.938;13.556;2024-02-23T10:54:43;0.30;;;0.10;;
16922;SDS011;8578;50.938;13.556;2024-02-23T10:57:14;0.90;;;0.33;;
16922;SDS011;8578;50.938;13.556;2024-02-23T10:59:45;0.30;;;0.20;;
16922;SDS011;8578;50.938;13.556;2024-02-23T11:02:13;0.73;;;0.40;;
16922;SDS011;8578;50.938;13.556;2024-02-23T11:04:46;1.17;;;0.30;;
16922;SDS011;8578;50.938;13.556;2024-02-23T11:07:18;1.60;;;0.23;;
16922;SDS011;8578;50.938;13.556;2024-02-23T11:09:48;0.40;;;0.20;;
16922;SDS011;8578;50.938;13.556;2024-02-23T11:12:22;0.53;;;0.20;;
16922;SDS011;8578;50.938;13.556;2024-02-23T11:14:50;0.50;;;0.30;;
16922;SDS011;8578;50.938;13.556;2024-02-23T11:17:18;0.90;;;0.20;;
16922;SDS011;8578;50.938;13.556;2024-02-23T11:19:49;1.47;;;0.20;;
16922;SDS011;8578;50.938;13.556;2024-02-23T11:22:23;0.60;;;0.20;;
16922;SDS011;8578;50.938;13.556;2024-02-23T11:24:59;0.77;;;0.27;;
16922;SDS011;8578;50.938;13.556;2024-02-23T11:27:29;0.90;;;0.23;;
16922;SDS011;8578;50.938;13.556;2024-02-23T11:30:01;0.73;;;0.40;;
16922;SDS011;8578;50.938;13.556;2024-02-23T11:32:36;1.07;;;0.20;;
16922;SDS011;8578;50.938;13.556;2024-02-23T11:35:07;1.00;;;0.20;;
16922;SDS011;8578;50.938;13.556;2024-02-23T11:37:43;1.13;;;0.20;;
16922;SDS011;8578;50.938;13.556;2024-02-23T11:40:11;0.20;;;0.17;;
16922;SDS011;8578;50.938;13.556;2024-02-23T11:42:39;1.80;;;0.30;;
16922;SDS011;8578;50.938;13.556;2024-02-23T11:45:09;0.70;;;0.20;;
16922;SDS011;8578;50.938;13.556;2024-02-23T11:47:37;1.33;;;0.30;;
16922;SDS011;8578;50.938;13.556;2024-02-23T11:50:08;0.50;;;0.30;;
16922;SDS011;8578;50.938;13.556;2024-02-23T11:52:36;0.40;;;0.20;;
16922;SDS011;8578;50.938;13.556;2024-02-23T11:55:04;0.93;;;0.30;;
16922;SDS011;8578;50.938;13.556;2024-02-23T11:57:32;0.40;;;0.20;;
16922;SDS011;8578;50.938;13.556;2024-02-23T12:00:14;0.83;;;0.20;;
16922;SDS011;8578;50.938;13.556;2024-02-23T12:02:43;1.60;;;0.40;;
16922;SDS011;8578;50.938;13.556;2024-02-23T12:05:12;2.40;;;0.30;;
16922;SDS011;8578;50.938;13.556;2024-02-23T12:07:40;0.33;;;0.13;;
16922;SDS011;8578;50.938;13.556;2024-02-23T12:10:12;1.20;;;0.30;;
16922;SDS011;8578;50.938;13.556;2024-02-23T12:12:40;0.43;;;0.30;;
16922;SDS011;8578;50.938;13.556;2024-02-23T12:15:08;1.07;;;0.20;;
16922;SDS011;8578;50.938;13.556;2024-02-23T12:17:36;1.10;;;0.20;;
16922;SDS011;8578;50.938;13.556;2024-02-23T12:20:04;0.47;;;0.27;;
16922;SDS011;8578;50.938;13.556;2024-02-23T12:22:36;1.13;;;0.30;;
16922;SDS011;8578;50.938;13.556;2024-02-23T12:25:03;0.53;;;0.20;;
16922;SDS011;8578;50.938;13.556;2024-02-23T12:27:31;1.20;;;0.33;;
16922;SDS011;8578;50.938;13.556;2024-02-23T12:29:58;0.63;;;0.10;;
16922;SDS011;8578;50.938;13.556;2024-02-23T12:32:28;1.40;;;0.20;;
16922;SDS011;8578;50.938;13.556;2024-02-23T12:34:55;0.50;;;0.20;;
16922;SDS011;8578;50.938;13.556;2024-02-23T12:37:23;2.33;;;0.40;;
16922;SDS011;8578;50.938;13.556;2024-02-23T12:39:52;0.90;;;0.20;;
16922;SDS011;8578;50.938;13.556;2024-02-23T12:42:19;0.83;;;0.20;;
16922;SDS011;8578;50.938;13.556;2024-02-23T12:44:47;1.60;;;0.40;;
16922;SDS011;8578;50.938;13.556;2024-02-23T12:47:14;0.20;;;0.20;;
16922;SDS011;8578;50.938;13.556;2024-02-23T12:49:42;0.50;;;0.30;;
16922;SDS011;8578;50.938;13.556;2024-02-23T12:52:12;0.33;;;0.30;;
16922;SDS011;8578;50.938;13.556;2024-02-23T12:54:39;0.80;;;0.50;;
16922;SDS011;8578;50.938;13.556;2024-02-23T12:57:09;0.57;;;0.30;;
16922;SDS011;8578;50.938;13.556;2024-02-23T12:59:38;1.23;;;0.50;;
16922;SDS011;8578;50.938;13.556;2024-02-23T13:02:06;2.03;;;0.47;;
16922;SDS011;8578;50.938;13.556;2024-02-23T13:04:36;1.20;;;0.40;;
16922;SDS011;8578;50.938;13.556;2024-02-23T13:07:03;1.07;;;0.40;;
16922;SDS011;8578;50.938;13.556;2024-02-23T13:09:31;1.67;;;0.40;;
16922;SDS011;8578;50.938;13.556;2024-02-23T13:12:00;5.30;;;0.80;;
16922;SDS011;8578;50.938;13.556;2024-02-23T13:14:29;3.67;;;1.77;;
16922;SDS011;8578;50.938;13.556;2024-02-23T13:16:58;5.70;;;3.80;;
16922;SDS011;8578;50.938;13.556;2024-02-23T13:19:25;3.93;;;2.00;;
16922;SDS011;8578;50.938;13.556;2024-02-23T13:21:53;3.40;;;2.10;;
16922;SDS011;8578;50.938;13.556;2024-02-23T13:24:21;2.47;;;1.00;;
16922;SDS011;8578;50.938;13.556;2024-02-23T13:26:48;0.40;;;0.40;;
16922;SDS011;8578;50.938;13.556;2024-02-23T13:29:16;1.30;;;0.50;;
16922;SDS011;8578;50.938;13.556;2024-02-23T13:31:47;1.33;;;0.40;;
16922;SDS011;8578;50.938;13.556;2024-02-23T13:34:15;0.60;;;0.40;;
16922;SDS011;8578;50.938;13.556;2024-02-23T13:36:44;1.70;;;0.43;;
16922;SDS011;8578;50.938;13.556;2024-02-23T13:39:12;1.20;;;0.50;;
16922;SDS011;8578;50.938;13.556;2024-02-23T13:41:40;1.07;;;0.40;;
16922;SDS011;8578;50.938;13.556;2024-02-23T13:44:07;0.70;;;0.50;;
16922;SDS011;8578;50.938;13.556;2024-02-23T13:46:36;1.00;;;0.40;;
16922;SDS011;8578;50.938;13.556;2024-02-23T13:49:06;1.03;;;0.50;;
16922;SDS011;8578;50.938;13.556;2024-02-23T13:51:38;0.70;;;0.30;;
16922;SDS011;8578;50.938;13.556;2024-02-23T13:54:06;1.30;;;0.40;;
16922;SDS011;8578;50.938;13.556;2024-02-23T13:56:34;0.80;;;0.50;;
16922;SDS011;8578;50.938;13.556;2024-02-23T13:59:02;2.37;;;0.50;;
16922;SDS011;8578;50.938;13.556;2024-02-23T14:01:32;2.43;;;0.50;;
16922;SDS011;8578;50.938;13.556;2024-02-23T14:04:00;1.53;;;0.40;;
16922;SDS011;8578;50.938;13.556;2024-02-23T14:06:31;2.47;;;0.80;;
16922;SDS011;8578;50.938;13.556;2024-02-23T14:08:59;2.20;;;0.80;;
16922;SDS011;8578;50.938;13.556;2024-02-23T14:11:29;1.60;;;0.50;;
16922;SDS011;8578;50.938;13.556;2024-02-23T14:13:57;1.60;;;0.60;;
16922;SDS011;8578;50.938;13.556;2024-02-23T14:16:28;0.70;;;0.33;;
16922;SDS011;8578;50.938;13.556;2024-02-23T14:18:55;1.40;;;0.43;;
16922;SDS011;8578;50.938;13.556;2024-02-23T14:21:23;0.93;;;0.40;;
16922;SDS011;8578;50.938;13.556;2024-02-23T14:23:53;1.10;;;0.30;;
16922;SDS011;8578;50.938;13.556;2024-02-23T14:26:21;0.97;;;0.43;;
16922;SDS011;8578;50.938;13.556;2024-02-23T14:28:49;1.70;;;0.40;;
16922;SDS011;8578;50.938;13.556;2024-02-23T14:31:16;1.47;;;0.57;;
16922;SDS011;8578;50.938;13.556;2024-02-23T14:33:45;1.87;;;0.60;;
16922;SDS011;8578;50.938;13.556;2024-02-23T14:36:13;1.00;;;0.50;;
16922;SDS011;8578;50.938;13.556;2024-02-23T14:38:41;1.23;;;0.50;;
16922;SDS011;8578;50.938;13.556;2024-02-23T14:41:10;1.53;;;0.53;;
16922;SDS011;8578;50.938;13.556;2024-02-23T14:43:37;0.90;;;0.40;;
16922;SDS011;8578;50.938;13.556;2024-02-23T14:46:05;0.93;;;0.40;;
16922;SDS011;8578;50.938;13.556;2024-02-23T14:48:36;1.57;;;0.40;;
16922;SDS011;8578;50.938;13.556;2024-02-23T14:51:06;1.03;;;0.40;;
16922;SDS011;8578;50.938;13.556;2024-02-23T14:53:36;1.23;;;0.50;;
16922;SDS011;8578;50.938;13.556;2024-02-23T14:56:04;1.00;;;0.40;;